sensor_id;sensor_type;location;lat;lon;timestamp;P1;durP1;ratioP1;P2;durP2;ratioP2
50789;SDS011;37287;47.554;7.844;2022-10-26T00:01:13;5.13;;;1.98;;
50789;SDS011;37287;47.554;7.844;2022-10-26T00:03:42;4.80;;;1.90;;
50789;SDS011;37287;47.554;7.844;2022-10-26T00:06:13;3.92;;;2.00;;
50789;SDS011;37287;47.554;7.844;2022-10-26T00:08:44;6.05;;;2.00;;
50789;SDS011;37287;47.554;7.844;2022-10-26T00:11:11;2.58;;;1.60;;
50789;SDS011;37287;47.554;7.844;2022-10-26T00:13:38;4.75;;;1.85;;
50789;SDS011;37287;47.554;7.844;2022-10-26T00:16:08;4.90;;;2.08;;
50789;SDS011;37287;47.554;7.844;2022-10-26T00:18:35;3.40;;;1.90;;
50789;SDS011;37287;47.554;7.844;2022-10-26T00:21:05;3.33;;;2.15;;
50789;SDS011;37287;47.554;7.844;2022-10-26T00:23:33;4.93;;;2.33;;
50789;SDS011;37287;47.554;7.844;2022-10-26T00:25:59;6.10;;;2.50;;
50789;SDS011;37287;47.554;7.844;2022-10-26T00:28:26;7.70;;;1.90;;
50789;SDS011;37287;47.554;7.844;2022-10-26T00:30:53;6.47;;;2.10;;
50789;SDS011;37287;47.554;7.844;2022-10-26T00:33:20;3.40;;;2.30;;
50789;SDS011;37287;47.554;7.844;2022-10-26T00:35:47;4.50;;;2.35;;
50789;SDS011;37287;47.554;7.844;2022-10-26T00:38:19;15.48;;;2.85;;
50789;SDS011;37287;47.554;7.844;2022-10-26T00:40:46;5.15;;;2.60;;
50789;SDS011;37287;47.554;7.844;2022-10-26T00:43:34;5.43;;;2.63;;
50789;SDS011;37287;47.554;7.844;2022-10-26T00:46:29;3.92;;;2.40;;
50789;SDS011;37287;47.554;7.844;2022-10-26T00:49:00;3.70;;;2.60;;
50789;SDS011;37287;47.554;7.844;2022-10-26T00:51:31;3.67;;;2.15;;
50789;SDS011;37287;47.554;7.844;2022-10-26T00:54:03;6.25;;;2.50;;
50789;SDS011;37287;47.554;7.844;2022-10-26T00:56:33;4.75;;;2.47;;
50789;SDS011;37287;47.554;7.844;2022-10-26T00:59:01;5.78;;;2.30;;
50789;SDS011;37287;47.554;7.844;2022-10-26T01:01:31;5.45;;;2.50;;
50789;SDS011;37287;47.554;7.844;2022-10-26T01:04:01;5.97;;;2.50;;
50789;SDS011;37287;47.554;7.844;2022-10-26T01:06:30;4.90;;;2.80;;
50789;SDS011;37287;47.554;7.844;2022-10-26T01:08:59;5.93;;;2.80;;
50789;SDS011;37287;47.554;7.844;2022-10-26T01:11:27;5.90;;;2.63;;
50789;SDS011;37287;47.554;7.844;2022-10-26T01:13:54;2.90;;;2.50;;
50789;SDS011;37287;47.554;7.844;2022-10-26T01:21:40;7.28;;;2.85;;
50789;SDS011;37287;47.554;7.844;2022-10-26T01:32:22;4.43;;;3.22;;
50789;SDS011;37287;47.554;7.844;2022-10-26T01:34:59;4.93;;;3.35;;
50789;SDS011;37287;47.554;7.844;2022-10-26T01:37:50;11.55;;;3.90;;
50789;SDS011;37287;47.554;7.844;2022-10-26T01:40:30;8.18;;;4.22;;
50789;SDS011;37287;47.554;7.844;2022-10-26T01:43:05;6.13;;;3.80;;
50789;SDS011;37287;47.554;7.844;2022-10-26T01:45:34;7.00;;;3.95;;
50789;SDS011;37287;47.554;7.844;2022-10-26T01:48:04;7.95;;;4.03;;
50789;SDS011;37287;47.554;7.844;2022-10-26T01:50:32;6.53;;;4.13;;
50789;SDS011;37287;47.554;7.844;2022-10-26T01:53:00;8.15;;;4.50;;
50789;SDS011;37287;47.554;7.844;2022-10-26T01:55:42;8.55;;;4.32;;
50789;SDS011;37287;47.554;7.844;2022-10-26T01:58:28;8.55;;;4.35;;
50789;SDS011;37287;47.554;7.844;2022-10-26T02:01:22;7.35;;;4.57;;
50789;SDS011;37287;47.554;7.844;2022-10-26T02:04:13;7.40;;;4.38;;
50789;SDS011;37287;47.554;7.844;2022-10-26T02:06:49;5.70;;;3.67;;
50789;SDS011;37287;47.554;7.844;2022-10-26T02:09:53;8.88;;;4.18;;
50789;SDS011;37287;47.554;7.844;2022-10-26T02:15:02;7.32;;;4.68;;
50789;SDS011;37287;47.554;7.844;2022-10-26T02:17:45;6.00;;;4.68;;
50789;SDS011;37287;47.554;7.844;2022-10-26T02:20:28;5.97;;;4.55;;
50789;SDS011;37287;47.554;7.844;2022-10-26T02:23:00;6.70;;;5.20;;
50789;SDS011;37287;47.554;7.844;2022-10-26T02:25:31;7.40;;;5.88;;
50789;SDS011;37287;47.554;7.844;2022-10-26T02:28:03;12.82;;;6.82;;
50789;SDS011;37287;47.554;7.844;2022-10-26T02:30:33;9.55;;;7.28;;
50789;SDS011;37287;47.554;7.844;2022-10-26T02:33:00;11.30;;;7.43;;
50789;SDS011;37287;47.554;7.844;2022-10-26T02:35:31;13.38;;;7.80;;
50789;SDS011;37287;47.554;7.844;2022-10-26T02:38:04;12.10;;;7.15;;
50789;SDS011;37287;47.554;7.844;2022-10-26T02:40:34;8.35;;;6.30;;
50789;SDS011;37287;47.554;7.844;2022-10-26T02:43:04;15.43;;;7.43;;
50789;SDS011;37287;47.554;7.844;2022-10-26T02:45:40;14.27;;;6.93;;
50789;SDS011;37287;47.554;7.844;2022-10-26T02:48:11;13.18;;;7.15;;
50789;SDS011;37287;47.554;7.844;2022-10-26T02:50:47;13.45;;;8.15;;
50789;SDS011;37287;47.554;7.844;2022-10-26T02:53:24;13.00;;;7.80;;
50789;SDS011;37287;47.554;7.844;2022-10-26T02:55:53;13.43;;;8.30;;
50789;SDS011;37287;47.554;7.844;2022-10-26T02:58:24;15.75;;;9.20;;
50789;SDS011;37287;47.554;7.844;2022-10-26T03:00:54;14.68;;;8.68;;
50789;SDS011;37287;47.554;7.844;2022-10-26T03:03:23;16.70;;;9.52;;
50789;SDS011;37287;47.554;7.844;2022-10-26T03:05:49;13.32;;;10.10;;
50789;SDS011;37287;47.554;7.844;2022-10-26T03:08:18;14.77;;;9.60;;
50789;SDS011;37287;47.554;7.844;2022-10-26T03:10:45;11.70;;;8.63;;
50789;SDS011;37287;47.554;7.844;2022-10-26T03:13:12;11.00;;;6.90;;
50789;SDS011;37287;47.554;7.844;2022-10-26T03:15:41;10.63;;;7.07;;
50789;SDS011;37287;47.554;7.844;2022-10-26T03:18:08;9.98;;;6.15;;
50789;SDS011;37287;47.554;7.844;2022-10-26T03:20:34;9.30;;;6.10;;
50789;SDS011;37287;47.554;7.844;2022-10-26T03:23:01;10.40;;;7.20;;
50789;SDS011;37287;47.554;7.844;2022-10-26T03:25:28;15.55;;;8.60;;
50789;SDS011;37287;47.554;7.844;2022-10-26T03:27:55;12.45;;;8.52;;
50789;SDS011;37287;47.554;7.844;2022-10-26T03:30:28;17.17;;;9.52;;
50789;SDS011;37287;47.554;7.844;2022-10-26T03:32:57;14.90;;;9.80;;
50789;SDS011;37287;47.554;7.844;2022-10-26T03:35:24;12.98;;;9.57;;
50789;SDS011;37287;47.554;7.844;2022-10-26T03:37:50;14.45;;;10.27;;
50789;SDS011;37287;47.554;7.844;2022-10-26T03:40:17;17.30;;;9.70;;
50789;SDS011;37287;47.554;7.844;2022-10-26T03:42:44;16.42;;;8.88;;
50789;SDS011;37287;47.554;7.844;2022-10-26T03:45:15;13.25;;;10.32;;
50789;SDS011;37287;47.554;7.844;2022-10-26T03:47:43;12.60;;;8.85;;
50789;SDS011;37287;47.554;7.844;2022-10-26T03:50:11;12.63;;;8.35;;
50789;SDS011;37287;47.554;7.844;2022-10-26T03:52:40;12.35;;;7.68;;
50789;SDS011;37287;47.554;7.844;2022-10-26T03:55:07;20.00;;;8.13;;
50789;SDS011;37287;47.554;7.844;2022-10-26T03:57:42;10.23;;;7.95;;
50789;SDS011;37287;47.554;7.844;2022-10-26T04:00:13;13.30;;;7.90;;
50789;SDS011;37287;47.554;7.844;2022-10-26T04:02:42;13.77;;;7.10;;
50789;SDS011;37287;47.554;7.844;2022-10-26T04:05:12;14.07;;;7.18;;
50789;SDS011;37287;47.554;7.844;2022-10-26T04:07:41;9.50;;;6.45;;
50789;SDS011;37287;47.554;7.844;2022-10-26T04:10:08;9.68;;;6.28;;
50789;SDS011;37287;47.554;7.844;2022-10-26T04:12:36;12.82;;;6.50;;
50789;SDS011;37287;47.554;7.844;2022-10-26T04:15:03;8.73;;;6.38;;
50789;SDS011;37287;47.554;7.844;2022-10-26T04:17:33;16.00;;;7.15;;
50789;SDS011;37287;47.554;7.844;2022-10-26T04:19:59;7.18;;;5.80;;
50789;SDS011;37287;47.554;7.844;2022-10-26T04:22:26;10.32;;;6.32;;
50789;SDS011;37287;47.554;7.844;2022-10-26T04:24:52;8.77;;;6.03;;
50789;SDS011;37287;47.554;7.844;2022-10-26T04:27:21;7.95;;;5.72;;
50789;SDS011;37287;47.554;7.844;2022-10-26T04:29:50;8.35;;;6.80;;
50789;SDS011;37287;47.554;7.844;2022-10-26T04:32:16;8.30;;;6.50;;
50789;SDS011;37287;47.554;7.844;2022-10-26T04:34:43;13.38;;;7.78;;
50789;SDS011;37287;47.554;7.844;2022-10-26T04:37:09;12.32;;;7.72;;
50789;SDS011;37287;47.554;7.844;2022-10-26T04:39:36;12.55;;;7.82;;
50789;SDS011;37287;47.554;7.844;2022-10-26T04:42:05;10.18;;;7.88;;
50789;SDS011;37287;47.554;7.844;2022-10-26T04:44:32;11.25;;;7.80;;
50789;SDS011;37287;47.554;7.844;2022-10-26T04:46:58;14.77;;;7.75;;
50789;SDS011;37287;47.554;7.844;2022-10-26T04:49:28;10.65;;;7.63;;
50789;SDS011;37287;47.554;7.844;2022-10-26T04:51:55;11.57;;;7.68;;
50789;SDS011;37287;47.554;7.844;2022-10-26T04:54:21;15.85;;;9.18;;
50789;SDS011;37287;47.554;7.844;2022-10-26T04:56:50;13.68;;;9.60;;
50789;SDS011;37287;47.554;7.844;2022-10-26T04:59:17;14.65;;;9.88;;
50789;SDS011;37287;47.554;7.844;2022-10-26T05:01:45;12.70;;;9.50;;
50789;SDS011;37287;47.554;7.844;2022-10-26T05:04:14;17.15;;;9.60;;
50789;SDS011;37287;47.554;7.844;2022-10-26T05:06:41;12.40;;;9.18;;
50789;SDS011;37287;47.554;7.844;2022-10-26T05:09:07;15.05;;;9.52;;
50789;SDS011;37287;47.554;7.844;2022-10-26T05:11:41;14.40;;;9.90;;
50789;SDS011;37287;47.554;7.844;2022-10-26T05:14:07;11.18;;;8.50;;
50789;SDS011;37287;47.554;7.844;2022-10-26T05:16:34;13.77;;;7.75;;
50789;SDS011;37287;47.554;7.844;2022-10-26T05:19:03;9.88;;;7.18;;
50789;SDS011;37287;47.554;7.844;2022-10-26T05:21:31;14.05;;;6.93;;
50789;SDS011;37287;47.554;7.844;2022-10-26T05:23:58;9.18;;;6.35;;
50789;SDS011;37287;47.554;7.844;2022-10-26T05:26:26;7.32;;;6.03;;
50789;SDS011;37287;47.554;7.844;2022-10-26T05:28:53;8.27;;;6.25;;
50789;SDS011;37287;47.554;7.844;2022-10-26T05:31:19;9.88;;;7.20;;
50789;SDS011;37287;47.554;7.844;2022-10-26T05:33:53;13.40;;;6.43;;
50789;SDS011;37287;47.554;7.844;2022-10-26T05:36:19;8.95;;;6.43;;
50789;SDS011;37287;47.554;7.844;2022-10-26T05:38:46;7.95;;;5.68;;
50789;SDS011;37287;47.554;7.844;2022-10-26T05:41:14;10.45;;;5.93;;
50789;SDS011;37287;47.554;7.844;2022-10-26T05:43:41;9.20;;;6.25;;
50789;SDS011;37287;47.554;7.844;2022-10-26T05:46:08;9.15;;;6.32;;
50789;SDS011;37287;47.554;7.844;2022-10-26T05:48:34;11.32;;;6.32;;
50789;SDS011;37287;47.554;7.844;2022-10-26T05:51:01;15.40;;;8.20;;
50789;SDS011;37287;47.554;7.844;2022-10-26T05:53:27;13.13;;;7.60;;
50789;SDS011;37287;47.554;7.844;2022-10-26T05:55:56;17.98;;;7.15;;
50789;SDS011;37287;47.554;7.844;2022-10-26T05:58:23;8.88;;;7.05;;
50789;SDS011;37287;47.554;7.844;2022-10-26T06:06:43;10.73;;;7.55;;
50789;SDS011;37287;47.554;7.844;2022-10-26T06:09:13;11.98;;;7.05;;
50789;SDS011;37287;47.554;7.844;2022-10-26T06:11:40;11.82;;;6.45;;
50789;SDS011;37287;47.554;7.844;2022-10-26T06:14:07;11.13;;;6.90;;
50789;SDS011;37287;47.554;7.844;2022-10-26T06:19:31;11.15;;;6.88;;
50789;SDS011;37287;47.554;7.844;2022-10-26T06:22:37;12.45;;;6.40;;
50789;SDS011;37287;47.554;7.844;2022-10-26T06:25:15;8.07;;;6.03;;
50789;SDS011;37287;47.554;7.844;2022-10-26T06:30:38;11.90;;;5.63;;
50789;SDS011;37287;47.554;7.844;2022-10-26T06:33:08;8.40;;;5.63;;
50789;SDS011;37287;47.554;7.844;2022-10-26T06:38:46;6.25;;;4.82;;
50789;SDS011;37287;47.554;7.844;2022-10-26T06:41:14;6.68;;;5.05;;
50789;SDS011;37287;47.554;7.844;2022-10-26T06:43:44;10.35;;;5.93;;
50789;SDS011;37287;47.554;7.844;2022-10-26T06:49:29;6.53;;;4.97;;
50789;SDS011;37287;47.554;7.844;2022-10-26T06:52:07;7.07;;;4.70;;
50789;SDS011;37287;47.554;7.844;2022-10-26T06:54:48;6.75;;;5.30;;
50789;SDS011;37287;47.554;7.844;2022-10-26T06:57:21;6.43;;;5.05;;
50789;SDS011;37287;47.554;7.844;2022-10-26T06:59:50;7.35;;;5.28;;
50789;SDS011;37287;47.554;7.844;2022-10-26T07:02:19;12.35;;;5.18;;
50789;SDS011;37287;47.554;7.844;2022-10-26T07:04:47;8.82;;;5.03;;
50789;SDS011;37287;47.554;7.844;2022-10-26T07:07:15;9.85;;;5.88;;
50789;SDS011;37287;47.554;7.844;2022-10-26T07:09:50;7.15;;;5.43;;
50789;SDS011;37287;47.554;7.844;2022-10-26T07:12:23;10.75;;;5.65;;
50789;SDS011;37287;47.554;7.844;2022-10-26T07:14:51;9.63;;;5.30;;
50789;SDS011;37287;47.554;7.844;2022-10-26T07:17:18;6.10;;;5.07;;
50789;SDS011;37287;47.554;7.844;2022-10-26T07:19:46;8.50;;;5.30;;
50789;SDS011;37287;47.554;7.844;2022-10-26T07:22:13;7.93;;;5.35;;
50789;SDS011;37287;47.554;7.844;2022-10-26T07:24:39;11.95;;;4.65;;
50789;SDS011;37287;47.554;7.844;2022-10-26T07:27:06;6.60;;;5.18;;
50789;SDS011;37287;47.554;7.844;2022-10-26T07:29:32;6.65;;;4.88;;
50789;SDS011;37287;47.554;7.844;2022-10-26T07:32:00;8.23;;;4.57;;
50789;SDS011;37287;47.554;7.844;2022-10-26T07:34:28;9.18;;;5.28;;
50789;SDS011;37287;47.554;7.844;2022-10-26T07:36:55;6.80;;;4.40;;
50789;SDS011;37287;47.554;7.844;2022-10-26T07:39:21;8.40;;;4.60;;
50789;SDS011;37287;47.554;7.844;2022-10-26T07:41:48;6.70;;;4.35;;
50789;SDS011;37287;47.554;7.844;2022-10-26T07:44:16;6.13;;;4.25;;
50789;SDS011;37287;47.554;7.844;2022-10-26T07:46:44;7.28;;;3.88;;
50789;SDS011;37287;47.554;7.844;2022-10-26T07:49:12;6.40;;;3.55;;
50789;SDS011;37287;47.554;7.844;2022-10-26T07:51:44;6.18;;;3.85;;
50789;SDS011;37287;47.554;7.844;2022-10-26T07:54:11;5.20;;;3.38;;
50789;SDS011;37287;47.554;7.844;2022-10-26T07:56:44;6.43;;;3.10;;
50789;SDS011;37287;47.554;7.844;2022-10-26T07:59:10;6.00;;;3.00;;
50789;SDS011;37287;47.554;7.844;2022-10-26T08:01:38;9.43;;;4.10;;
50789;SDS011;37287;47.554;7.844;2022-10-26T08:04:06;3.63;;;3.28;;
50789;SDS011;37287;47.554;7.844;2022-10-26T08:06:33;5.00;;;3.95;;
50789;SDS011;37287;47.554;7.844;2022-10-26T08:08:59;8.77;;;3.65;;
50789;SDS011;37287;47.554;7.844;2022-10-26T08:11:28;8.77;;;4.00;;
50789;SDS011;37287;47.554;7.844;2022-10-26T08:13:57;6.00;;;4.13;;
50789;SDS011;37287;47.554;7.844;2022-10-26T08:16:23;4.13;;;3.13;;
50789;SDS011;37287;47.554;7.844;2022-10-26T08:18:50;4.90;;;3.85;;
50789;SDS011;37287;47.554;7.844;2022-10-26T08:21:17;4.60;;;3.47;;
50789;SDS011;37287;47.554;7.844;2022-10-26T08:23:51;8.20;;;3.70;;
50789;SDS011;37287;47.554;7.844;2022-10-26T08:26:19;4.72;;;3.53;;
50789;SDS011;37287;47.554;7.844;2022-10-26T08:28:48;4.43;;;3.20;;
50789;SDS011;37287;47.554;7.844;2022-10-26T08:31:15;7.03;;;3.55;;
50789;SDS011;37287;47.554;7.844;2022-10-26T08:33:46;5.65;;;3.30;;
50789;SDS011;37287;47.554;7.844;2022-10-26T08:36:13;6.57;;;2.92;;
50789;SDS011;37287;47.554;7.844;2022-10-26T08:38:46;3.63;;;3.00;;
50789;SDS011;37287;47.554;7.844;2022-10-26T08:41:13;3.13;;;2.72;;
50789;SDS011;37287;47.554;7.844;2022-10-26T08:43:57;6.65;;;3.13;;
50789;SDS011;37287;47.554;7.844;2022-10-26T08:46:35;6.57;;;2.78;;
50789;SDS011;37287;47.554;7.844;2022-10-26T08:51:52;9.07;;;2.85;;
50789;SDS011;37287;47.554;7.844;2022-10-26T08:54:35;3.92;;;2.70;;
50789;SDS011;37287;47.554;7.844;2022-10-26T09:00:05;3.42;;;2.63;;
50789;SDS011;37287;47.554;7.844;2022-10-26T09:02:36;5.45;;;2.58;;
50789;SDS011;37287;47.554;7.844;2022-10-26T09:05:08;4.90;;;2.50;;
50789;SDS011;37287;47.554;7.844;2022-10-26T09:10:24;3.03;;;2.00;;
50789;SDS011;37287;47.554;7.844;2022-10-26T09:13:08;3.45;;;2.40;;
50789;SDS011;37287;47.554;7.844;2022-10-26T09:26:38;3.92;;;2.30;;
50789;SDS011;37287;47.554;7.844;2022-10-26T09:29:22;3.97;;;2.33;;
50789;SDS011;37287;47.554;7.844;2022-10-26T09:31:55;4.35;;;2.53;;
50789;SDS011;37287;47.554;7.844;2022-10-26T09:36:53;4.10;;;2.40;;
50789;SDS011;37287;47.554;7.844;2022-10-26T09:39:41;8.32;;;2.30;;
50789;SDS011;37287;47.554;7.844;2022-10-26T09:42:28;3.10;;;1.98;;
50789;SDS011;37287;47.554;7.844;2022-10-26T09:45:04;4.50;;;2.30;;
50789;SDS011;37287;47.554;7.844;2022-10-26T09:47:41;5.32;;;2.42;;
50789;SDS011;37287;47.554;7.844;2022-10-26T09:50:26;3.00;;;2.10;;
50789;SDS011;37287;47.554;7.844;2022-10-26T09:52:56;3.67;;;2.35;;
50789;SDS011;37287;47.554;7.844;2022-10-26T09:55:24;4.85;;;2.15;;
50789;SDS011;37287;47.554;7.844;2022-10-26T09:57:56;3.85;;;2.13;;
50789;SDS011;37287;47.554;7.844;2022-10-26T10:00:27;3.40;;;2.13;;
50789;SDS011;37287;47.554;7.844;2022-10-26T10:02:56;3.15;;;1.83;;
50789;SDS011;37287;47.554;7.844;2022-10-26T10:05:29;3.88;;;2.20;;
50789;SDS011;37287;47.554;7.844;2022-10-26T10:08:20;2.70;;;2.25;;
50789;SDS011;37287;47.554;7.844;2022-10-26T10:13:25;4.88;;;1.85;;
50789;SDS011;37287;47.554;7.844;2022-10-26T10:15:56;3.97;;;2.47;;
50789;SDS011;37287;47.554;7.844;2022-10-26T10:18:30;2.33;;;1.58;;
50789;SDS011;37287;47.554;7.844;2022-10-26T10:20:58;3.22;;;1.85;;
50789;SDS011;37287;47.554;7.844;2022-10-26T10:23:26;3.08;;;1.80;;
50789;SDS011;37287;47.554;7.844;2022-10-26T10:26:00;4.45;;;2.03;;
50789;SDS011;37287;47.554;7.844;2022-10-26T10:28:41;5.10;;;1.73;;
50789;SDS011;37287;47.554;7.844;2022-10-26T10:31:18;5.70;;;1.92;;
50789;SDS011;37287;47.554;7.844;2022-10-26T10:33:47;4.50;;;2.10;;
50789;SDS011;37287;47.554;7.844;2022-10-26T10:36:21;3.70;;;1.50;;
50789;SDS011;37287;47.554;7.844;2022-10-26T10:38:50;4.05;;;1.50;;
50789;SDS011;37287;47.554;7.844;2022-10-26T10:44:02;4.53;;;1.85;;
50789;SDS011;37287;47.554;7.844;2022-10-26T10:46:33;3.85;;;1.50;;
50789;SDS011;37287;47.554;7.844;2022-10-26T10:49:03;4.15;;;1.50;;
50789;SDS011;37287;47.554;7.844;2022-10-26T10:51:44;4.47;;;1.60;;
50789;SDS011;37287;47.554;7.844;2022-10-26T10:54:28;6.55;;;1.63;;
50789;SDS011;37287;47.554;7.844;2022-10-26T10:57:19;4.40;;;1.30;;
50789;SDS011;37287;47.554;7.844;2022-10-26T11:00:03;4.18;;;1.50;;
50789;SDS011;37287;47.554;7.844;2022-10-26T11:05:16;8.63;;;1.92;;
50789;SDS011;37287;47.554;7.844;2022-10-26T11:07:57;7.15;;;2.15;;
50789;SDS011;37287;47.554;7.844;2022-10-26T11:10:29;6.63;;;1.80;;
50789;SDS011;37287;47.554;7.844;2022-10-26T11:13:02;12.52;;;1.92;;
50789;SDS011;37287;47.554;7.844;2022-10-26T11:15:37;8.15;;;2.13;;
50789;SDS011;37287;47.554;7.844;2022-10-26T11:18:11;6.45;;;1.70;;
50789;SDS011;37287;47.554;7.844;2022-10-26T11:20:46;4.63;;;1.60;;
50789;SDS011;37287;47.554;7.844;2022-10-26T11:23:23;3.30;;;1.45;;
50789;SDS011;37287;47.554;7.844;2022-10-26T11:26:08;5.70;;;1.85;;
50789;SDS011;37287;47.554;7.844;2022-10-26T11:28:42;5.82;;;2.13;;
50789;SDS011;37287;47.554;7.844;2022-10-26T11:31:23;6.05;;;1.48;;
50789;SDS011;37287;47.554;7.844;2022-10-26T11:36:40;4.95;;;1.63;;
50789;SDS011;37287;47.554;7.844;2022-10-26T11:42:26;4.38;;;1.77;;
50789;SDS011;37287;47.554;7.844;2022-10-26T11:45:08;6.45;;;1.58;;
50789;SDS011;37287;47.554;7.844;2022-10-26T11:47:47;5.70;;;1.75;;
50789;SDS011;37287;47.554;7.844;2022-10-26T11:52:51;9.68;;;2.00;;
50789;SDS011;37287;47.554;7.844;2022-10-26T11:55:23;6.22;;;1.67;;
50789;SDS011;37287;47.554;7.844;2022-10-26T11:57:57;4.40;;;1.60;;
50789;SDS011;37287;47.554;7.844;2022-10-26T12:00:24;5.57;;;1.73;;
50789;SDS011;37287;47.554;7.844;2022-10-26T12:02:55;8.48;;;1.90;;
50789;SDS011;37287;47.554;7.844;2022-10-26T12:05:34;5.22;;;1.98;;
50789;SDS011;37287;47.554;7.844;2022-10-26T12:08:29;6.85;;;1.73;;
50789;SDS011;37287;47.554;7.844;2022-10-26T12:11:12;7.30;;;2.30;;
50789;SDS011;37287;47.554;7.844;2022-10-26T12:14:18;5.07;;;1.77;;
50789;SDS011;37287;47.554;7.844;2022-10-26T12:19:41;5.10;;;1.88;;
50789;SDS011;37287;47.554;7.844;2022-10-26T12:22:18;8.57;;;2.25;;
50789;SDS011;37287;47.554;7.844;2022-10-26T12:25:04;5.13;;;2.13;;
50789;SDS011;37287;47.554;7.844;2022-10-26T12:32:50;7.70;;;2.20;;
50789;SDS011;37287;47.554;7.844;2022-10-26T12:35:35;11.90;;;2.10;;
50789;SDS011;37287;47.554;7.844;2022-10-26T12:43:38;9.32;;;2.25;;
50789;SDS011;37287;47.554;7.844;2022-10-26T12:48:39;10.23;;;2.22;;
50789;SDS011;37287;47.554;7.844;2022-10-26T12:53:50;7.82;;;1.77;;
50789;SDS011;37287;47.554;7.844;2022-10-26T13:04:38;12.13;;;2.20;;
50789;SDS011;37287;47.554;7.844;2022-10-26T13:09:49;6.32;;;2.17;;
50789;SDS011;37287;47.554;7.844;2022-10-26T13:12:18;5.95;;;2.28;;
50789;SDS011;37287;47.554;7.844;2022-10-26T13:14:53;5.00;;;2.20;;
50789;SDS011;37287;47.554;7.844;2022-10-26T13:17:27;5.80;;;2.03;;
50789;SDS011;37287;47.554;7.844;2022-10-26T13:19:58;6.15;;;1.95;;
50789;SDS011;37287;47.554;7.844;2022-10-26T13:22:27;8.93;;;2.22;;
50789;SDS011;37287;47.554;7.844;2022-10-26T13:24:58;10.65;;;2.80;;
50789;SDS011;37287;47.554;7.844;2022-10-26T13:32:37;8.68;;;2.30;;
50789;SDS011;37287;47.554;7.844;2022-10-26T13:35:09;9.43;;;2.10;;
50789;SDS011;37287;47.554;7.844;2022-10-26T13:37:40;6.97;;;2.22;;
50789;SDS011;37287;47.554;7.844;2022-10-26T13:40:13;10.30;;;2.03;;
50789;SDS011;37287;47.554;7.844;2022-10-26T13:42:44;5.15;;;1.90;;
50789;SDS011;37287;47.554;7.844;2022-10-26T13:45:17;5.78;;;1.80;;
50789;SDS011;37287;47.554;7.844;2022-10-26T13:50:36;8.15;;;2.08;;
50789;SDS011;37287;47.554;7.844;2022-10-26T13:53:22;4.80;;;1.95;;
50789;SDS011;37287;47.554;7.844;2022-10-26T13:59:02;5.25;;;2.15;;
50789;SDS011;37287;47.554;7.844;2022-10-26T14:01:33;5.20;;;2.30;;
50789;SDS011;37287;47.554;7.844;2022-10-26T14:04:16;4.88;;;1.90;;
50789;SDS011;37287;47.554;7.844;2022-10-26T14:06:52;6.88;;;1.95;;
50789;SDS011;37287;47.554;7.844;2022-10-26T14:09:20;6.03;;;2.05;;
50789;SDS011;37287;47.554;7.844;2022-10-26T14:11:51;4.05;;;1.90;;
50789;SDS011;37287;47.554;7.844;2022-10-26T14:16:52;4.80;;;2.08;;
50789;SDS011;37287;47.554;7.844;2022-10-26T14:19:27;8.95;;;2.20;;
50789;SDS011;37287;47.554;7.844;2022-10-26T14:21:58;6.07;;;1.90;;
50789;SDS011;37287;47.554;7.844;2022-10-26T14:24:29;6.22;;;1.90;;
50789;SDS011;37287;47.554;7.844;2022-10-26T14:27:16;5.40;;;2.03;;
50789;SDS011;37287;47.554;7.844;2022-10-26T14:29:46;8.55;;;2.40;;
50789;SDS011;37287;47.554;7.844;2022-10-26T14:32:36;8.40;;;2.22;;
50789;SDS011;37287;47.554;7.844;2022-10-26T14:35:12;7.10;;;2.42;;
50789;SDS011;37287;47.554;7.844;2022-10-26T14:37:48;4.13;;;1.90;;
50789;SDS011;37287;47.554;7.844;2022-10-26T14:40:20;11.35;;;2.10;;
50789;SDS011;37287;47.554;7.844;2022-10-26T14:42:51;10.85;;;2.55;;
50789;SDS011;37287;47.554;7.844;2022-10-26T14:45:23;6.03;;;2.15;;
50789;SDS011;37287;47.554;7.844;2022-10-26T14:48:18;5.55;;;2.15;;
50789;SDS011;37287;47.554;7.844;2022-10-26T14:50:58;7.38;;;2.40;;
50789;SDS011;37287;47.554;7.844;2022-10-26T14:53:57;9.80;;;2.13;;
50789;SDS011;37287;47.554;7.844;2022-10-26T14:59:10;8.23;;;2.13;;
50789;SDS011;37287;47.554;7.844;2022-10-26T15:01:52;5.78;;;1.92;;
50789;SDS011;37287;47.554;7.844;2022-10-26T15:04:31;7.65;;;2.50;;
50789;SDS011;37287;47.554;7.844;2022-10-26T15:09:28;7.03;;;2.13;;
50789;SDS011;37287;47.554;7.844;2022-10-26T15:11:57;9.65;;;1.98;;
50789;SDS011;37287;47.554;7.844;2022-10-26T15:14:24;7.22;;;2.20;;
50789;SDS011;37287;47.554;7.844;2022-10-26T15:16:54;7.60;;;2.25;;
50789;SDS011;37287;47.554;7.844;2022-10-26T15:19:23;6.55;;;1.83;;
50789;SDS011;37287;47.554;7.844;2022-10-26T15:21:54;6.18;;;2.10;;
50789;SDS011;37287;47.554;7.844;2022-10-26T15:27:10;15.23;;;2.20;;
50789;SDS011;37287;47.554;7.844;2022-10-26T15:29:39;5.50;;;1.85;;
50789;SDS011;37287;47.554;7.844;2022-10-26T15:32:20;12.13;;;2.10;;
50789;SDS011;37287;47.554;7.844;2022-10-26T15:35:11;8.83;;;1.87;;
50789;SDS011;37287;47.554;7.844;2022-10-26T15:37:44;8.65;;;2.20;;
50789;SDS011;37287;47.554;7.844;2022-10-26T15:40:12;12.23;;;2.80;;
50789;SDS011;37287;47.554;7.844;2022-10-26T15:42:39;9.25;;;2.83;;
50789;SDS011;37287;47.554;7.844;2022-10-26T15:45:19;8.25;;;3.00;;
50789;SDS011;37287;47.554;7.844;2022-10-26T15:47:47;12.02;;;3.58;;
50789;SDS011;37287;47.554;7.844;2022-10-26T15:50:22;13.68;;;2.70;;
50789;SDS011;37287;47.554;7.844;2022-10-26T15:52:54;10.48;;;3.45;;
50789;SDS011;37287;47.554;7.844;2022-10-26T15:55:27;11.10;;;3.20;;
50789;SDS011;37287;47.554;7.844;2022-10-26T15:57:55;12.25;;;2.92;;
50789;SDS011;37287;47.554;7.844;2022-10-26T16:00:22;16.85;;;3.17;;
50789;SDS011;37287;47.554;7.844;2022-10-26T16:02:55;9.10;;;2.65;;
50789;SDS011;37287;47.554;7.844;2022-10-26T16:05:21;11.85;;;3.10;;
50789;SDS011;37287;47.554;7.844;2022-10-26T16:07:48;12.63;;;3.45;;
50789;SDS011;37287;47.554;7.844;2022-10-26T16:10:23;11.88;;;3.67;;
50789;SDS011;37287;47.554;7.844;2022-10-26T16:12:50;6.70;;;2.92;;
50789;SDS011;37287;47.554;7.844;2022-10-26T16:15:30;9.88;;;3.35;;
50789;SDS011;37287;47.554;7.844;2022-10-26T16:17:59;14.40;;;3.58;;
50789;SDS011;37287;47.554;7.844;2022-10-26T16:20:25;9.73;;;3.10;;
50789;SDS011;37287;47.554;7.844;2022-10-26T16:22:54;13.15;;;3.10;;
50789;SDS011;37287;47.554;7.844;2022-10-26T16:25:22;9.98;;;3.08;;
50789;SDS011;37287;47.554;7.844;2022-10-26T16:27:50;10.75;;;3.38;;
50789;SDS011;37287;47.554;7.844;2022-10-26T16:30:20;11.60;;;3.08;;
50789;SDS011;37287;47.554;7.844;2022-10-26T16:32:52;8.30;;;2.70;;
50789;SDS011;37287;47.554;7.844;2022-10-26T16:35:21;10.50;;;2.80;;
50789;SDS011;37287;47.554;7.844;2022-10-26T16:37:49;6.43;;;2.72;;
50789;SDS011;37287;47.554;7.844;2022-10-26T16:40:15;7.43;;;3.08;;
50789;SDS011;37287;47.554;7.844;2022-10-26T16:42:42;13.35;;;3.58;;
50789;SDS011;37287;47.554;7.844;2022-10-26T16:45:10;10.73;;;3.03;;
50789;SDS011;37287;47.554;7.844;2022-10-26T16:47:38;13.55;;;3.20;;
50789;SDS011;37287;47.554;7.844;2022-10-26T16:50:06;13.43;;;3.58;;
50789;SDS011;37287;47.554;7.844;2022-10-26T16:52:36;7.50;;;3.13;;
50789;SDS011;37287;47.554;7.844;2022-10-26T16:55:06;7.85;;;3.45;;
50789;SDS011;37287;47.554;7.844;2022-10-26T16:57:34;7.85;;;3.20;;
50789;SDS011;37287;47.554;7.844;2022-10-26T17:00:01;14.02;;;3.28;;
50789;SDS011;37287;47.554;7.844;2022-10-26T17:02:30;12.75;;;3.47;;
50789;SDS011;37287;47.554;7.844;2022-10-26T17:04:56;9.23;;;3.58;;
50789;SDS011;37287;47.554;7.844;2022-10-26T17:07:31;7.88;;;3.15;;
50789;SDS011;37287;47.554;7.844;2022-10-26T17:10:00;12.30;;;3.80;;
50789;SDS011;37287;47.554;7.844;2022-10-26T17:12:32;12.95;;;3.38;;
50789;SDS011;37287;47.554;7.844;2022-10-26T17:14:58;6.72;;;2.90;;